createdAt,value
2022-12-12T00:00:36.770Z,2.33
2022-12-12T00:01:36.773Z,2.30
2022-12-12T00:02:36.803Z,2.29
2022-12-12T00:03:36.878Z,2.37
2022-12-12T00:04:36.722Z,2.30
2022-12-12T00:05:36.737Z,2.32
2022-12-12T00:06:36.725Z,2.25
2022-12-12T00:07:36.715Z,2.29
2022-12-12T00:08:36.692Z,2.33
2022-12-12T00:09:36.670Z,2.33
2022-12-12T00:10:36.676Z,2.30
2022-12-12T00:11:36.671Z,2.33
2022-12-12T00:12:36.638Z,2.25
2022-12-12T00:13:36.624Z,2.28
2022-12-12T00:14:36.636Z,2.35
2022-12-12T00:15:36.653Z,2.25
2022-12-12T00:16:36.595Z,2.24
2022-12-12T00:17:36.580Z,2.22
2022-12-12T00:18:36.574Z,2.22
2022-12-12T00:19:36.561Z,2.25
2022-12-12T00:20:36.583Z,2.25
2022-12-12T00:21:36.541Z,2.19
2022-12-12T00:22:36.532Z,2.22
2022-12-12T00:23:36.533Z,2.18
2022-12-12T00:24:36.510Z,2.19
2022-12-12T00:25:36.496Z,2.17
2022-12-12T00:26:36.517Z,2.22
2022-12-12T00:27:36.473Z,2.19
2022-12-12T00:28:36.467Z,2.18
2022-12-12T00:29:36.461Z,2.21
2022-12-12T00:30:36.448Z,2.19
2022-12-12T00:31:36.549Z,2.15
2022-12-12T00:32:36.427Z,2.12
2022-12-12T00:33:36.426Z,2.18
2022-12-12T00:34:36.402Z,2.17
2022-12-12T00:35:36.389Z,2.10
2022-12-12T00:36:36.404Z,2.12
2022-12-12T00:37:36.371Z,2.18
2022-12-12T00:38:36.360Z,2.15
2022-12-12T00:39:36.372Z,2.14
2022-12-12T00:40:36.341Z,2.11
2022-12-12T00:41:36.346Z,2.19
2022-12-12T00:42:36.322Z,2.18
2022-12-12T00:43:36.323Z,2.03
2022-12-12T00:44:36.298Z,2.17
2022-12-12T00:45:36.284Z,2.06
2022-12-12T00:46:36.346Z,2.10
2022-12-12T00:47:36.263Z,2.11
2022-12-12T00:48:36.277Z,2.14
2022-12-12T00:49:36.242Z,2.10
2022-12-12T00:50:36.234Z,2.14
2022-12-12T00:51:36.223Z,2.04
2022-12-12T00:52:36.228Z,2.18
2022-12-12T00:53:36.198Z,2.21
2022-12-12T00:54:36.193Z,2.14
2022-12-12T00:55:36.196Z,2.06
2022-12-12T00:56:36.168Z,2.17
2022-12-12T00:57:36.175Z,2.25
2022-12-12T00:58:36.150Z,2.10
2022-12-12T00:59:36.130Z,2.06
2022-12-12T01:00:36.124Z,2.10
2022-12-12T01:01:36.184Z,2.10
2022-12-12T01:02:36.183Z,2.11
2022-12-12T01:03:36.094Z,2.11
2022-12-12T01:04:36.087Z,2.10
2022-12-12T01:05:36.068Z,2.06
2022-12-12T01:06:36.062Z,2.10
2022-12-12T01:07:36.082Z,2.12
2022-12-12T01:08:36.037Z,2.11
2022-12-12T01:09:36.030Z,2.11
2022-12-12T01:10:36.036Z,2.07
2022-12-12T01:11:36.029Z,2.14
2022-12-12T01:12:36.001Z,2.04
2022-12-12T01:13:36.007Z,2.12
2022-12-12T01:14:35.974Z,2.15
2022-12-12T01:15:35.986Z,2.14
2022-12-12T01:16:35.997Z,2.12
2022-12-12T01:17:35.938Z,2.07
2022-12-12T01:18:35.934Z,2.04
2022-12-12T01:19:35.918Z,2.11
2022-12-12T01:20:35.920Z,2.14
2022-12-12T01:21:35.918Z,2.17
2022-12-12T01:22:35.890Z,2.03
2022-12-12T01:23:35.895Z,2.14
2022-12-12T01:24:35.865Z,2.12
2022-12-12T01:25:35.865Z,2.03
2022-12-12T01:26:35.867Z,2.04
2022-12-12T01:27:35.858Z,2.12
2022-12-12T01:28:35.852Z,2.06
2022-12-12T01:29:35.815Z,2.12
2022-12-12T01:30:35.804Z,2.18
2022-12-12T01:31:35.874Z,2.03
2022-12-12T01:32:35.787Z,2.15
2022-12-12T01:33:35.794Z,2.12
2022-12-12T01:34:35.759Z,2.01
2022-12-12T01:35:35.752Z,2.12
2022-12-12T01:36:35.762Z,2.07
2022-12-12T01:37:35.724Z,2.06
2022-12-12T01:38:35.736Z,2.06
2022-12-12T01:39:35.702Z,2.14
2022-12-12T01:40:35.695Z,2.18
2022-12-12T01:41:35.707Z,2.11
2022-12-12T01:42:35.675Z,2.04
2022-12-12T01:43:35.719Z,2.07
2022-12-12T01:44:35.654Z,2.06
2022-12-12T01:45:35.643Z,2.12
2022-12-12T01:46:35.745Z,2.07
2022-12-12T01:47:35.617Z,2.07
2022-12-12T01:48:35.635Z,2.12
2022-12-12T01:49:35.600Z,2.06
2022-12-12T01:50:35.602Z,2.14
2022-12-12T01:51:35.586Z,2.14
2022-12-12T01:52:35.588Z,2.18
2022-12-12T01:53:35.572Z,2.12
2022-12-12T01:54:35.552Z,2.01
2022-12-12T01:55:35.546Z,2.07
2022-12-12T01:56:35.529Z,2.17
2022-12-12T01:57:35.512Z,2.11
2022-12-12T01:58:35.533Z,2.11
2022-12-12T01:59:35.513Z,2.11
2022-12-12T02:00:35.531Z,2.06
2022-12-12T02:01:35.491Z,2.12
2022-12-12T02:02:35.481Z,2.12
2022-12-12T02:03:35.450Z,2.07
2022-12-12T02:04:35.465Z,2.12
2022-12-12T02:05:35.426Z,2.04
2022-12-12T02:06:35.417Z,2.06
2022-12-12T02:07:35.405Z,2.06
2022-12-12T02:08:35.393Z,2.18
2022-12-12T02:09:35.407Z,2.10
2022-12-12T02:10:35.378Z,2.04
2022-12-12T02:11:35.360Z,2.14
2022-12-12T02:12:35.359Z,2.14
2022-12-12T02:13:35.341Z,2.03
2022-12-12T02:14:35.355Z,2.07
2022-12-12T02:15:35.342Z,2.01
2022-12-12T02:16:35.351Z,2.11
2022-12-12T02:17:35.296Z,2.15
2022-12-12T02:18:35.288Z,2.10
2022-12-12T02:19:35.310Z,2.06
2022-12-12T02:20:35.269Z,2.17
2022-12-12T02:21:35.265Z,2.15
2022-12-12T02:22:35.245Z,2.14
2022-12-12T02:23:35.234Z,2.04
2022-12-12T02:24:35.228Z,2.07
2022-12-12T02:25:35.237Z,2.11
2022-12-12T02:26:35.203Z,2.01
2022-12-12T02:27:35.195Z,2.11
2022-12-12T02:28:35.186Z,2.12
2022-12-12T02:29:35.167Z,2.07
2022-12-12T02:30:35.181Z,2.11
2022-12-12T02:31:35.341Z,2.03
2022-12-12T02:32:35.157Z,2.04
2022-12-12T02:33:35.127Z,2.07
2022-12-12T02:34:35.125Z,2.06
2022-12-12T02:35:35.133Z,2.07
2022-12-12T02:36:35.109Z,2.03
2022-12-12T02:37:35.087Z,1.99
2022-12-12T02:38:35.080Z,2.06
2022-12-12T02:39:35.067Z,2.03
2022-12-12T02:40:35.083Z,2.18
2022-12-12T02:41:35.046Z,2.07
2022-12-12T02:42:35.034Z,2.10
2022-12-12T02:43:35.042Z,2.07
2022-12-12T02:44:35.012Z,2.06
2022-12-12T02:45:35.024Z,2.14
2022-12-12T02:46:35.020Z,2.10
2022-12-12T02:47:35.001Z,2.10
2022-12-12T02:48:34.999Z,2.15
2022-12-12T02:49:34.955Z,2.11
2022-12-12T02:50:34.963Z,2.01
2022-12-12T02:51:34.936Z,2.14
2022-12-12T02:52:34.924Z,2.07
2022-12-12T02:53:34.937Z,2.06
2022-12-12T02:54:34.908Z,2.11
2022-12-12T02:55:36.552Z,2.10
2022-12-12T02:56:34.880Z,2.06
2022-12-12T02:57:34.896Z,2.07
2022-12-12T02:58:34.865Z,2.06
2022-12-12T02:59:34.848Z,2.17
2022-12-12T03:00:34.898Z,2.12
2022-12-12T03:01:34.861Z,2.11
2022-12-12T03:02:34.842Z,2.06
2022-12-12T03:03:34.832Z,2.07
2022-12-12T03:04:34.796Z,2.07
2022-12-12T03:05:34.782Z,2.15
2022-12-12T03:06:40.641Z,2.01
2022-12-12T03:07:35.781Z,2.11
2022-12-12T03:08:34.754Z,2.07
2022-12-12T03:09:34.743Z,2.01
2022-12-12T03:10:34.733Z,2.03
2022-12-12T03:11:34.723Z,2.14
2022-12-12T03:12:34.747Z,2.04
2022-12-12T03:13:34.699Z,2.07
2022-12-12T03:14:34.692Z,2.17
2022-12-12T03:15:34.679Z,2.12
2022-12-12T03:16:34.711Z,2.06
2022-12-12T03:17:34.664Z,2.14
2022-12-12T03:18:34.665Z,2.06
2022-12-12T03:19:34.661Z,2.14
2022-12-12T03:20:34.652Z,2.00
2022-12-12T03:21:34.619Z,2.25
2022-12-12T03:22:34.605Z,2.18
2022-12-12T03:23:34.595Z,2.03
2022-12-12T03:24:34.577Z,2.06
2022-12-12T03:25:34.608Z,2.06
2022-12-12T03:26:34.561Z,2.04
2022-12-12T03:27:34.555Z,2.07
2022-12-12T03:28:34.546Z,2.17
2022-12-12T03:29:34.530Z,2.10
2022-12-12T03:30:34.517Z,2.18
2022-12-12T03:31:34.580Z,2.04
2022-12-12T03:32:34.495Z,2.10
2022-12-12T03:33:34.506Z,2.18
2022-12-12T03:34:34.474Z,2.01
2022-12-12T03:35:34.491Z,2.14
2022-12-12T03:36:34.454Z,2.10
2022-12-12T03:37:34.448Z,2.06
2022-12-12T03:38:34.452Z,2.03
2022-12-12T03:39:34.423Z,2.04
2022-12-12T03:40:34.410Z,2.18
2022-12-12T03:41:34.404Z,2.17
2022-12-12T03:42:34.385Z,2.12
2022-12-12T03:43:34.403Z,2.14
2022-12-12T03:44:39.752Z,2.11
2022-12-12T03:45:35.401Z,2.10
2022-12-12T03:46:34.343Z,2.17
2022-12-12T03:47:34.341Z,2.12
2022-12-12T03:48:34.323Z,2.11
2022-12-12T03:49:34.341Z,2.04
2022-12-12T03:50:34.300Z,2.15
2022-12-12T03:51:34.439Z,2.17
2022-12-12T03:52:34.279Z,2.14
2022-12-12T03:53:34.287Z,2.03
2022-12-12T03:54:34.260Z,2.10
2022-12-12T03:55:34.269Z,2.06
2022-12-12T03:56:34.245Z,2.15
2022-12-12T03:57:34.233Z,2.14
2022-12-12T03:58:34.241Z,2.06
2022-12-12T03:59:34.211Z,2.11
2022-12-12T04:00:34.194Z,2.14
2022-12-12T04:01:34.184Z,2.04
2022-12-12T04:02:34.222Z,2.18
2022-12-12T04:03:34.188Z,2.14
2022-12-12T04:04:34.153Z,2.14
2022-12-12T04:05:34.164Z,2.06
2022-12-12T04:06:34.133Z,2.14
2022-12-12T04:07:34.148Z,2.18
2022-12-12T04:08:34.117Z,2.17
2022-12-12T04:09:34.104Z,2.18
2022-12-12T04:10:34.104Z,2.17
2022-12-12T04:11:34.086Z,2.07
2022-12-12T04:12:34.083Z,2.14
2022-12-12T04:13:34.057Z,2.21
2022-12-12T04:14:34.072Z,2.17
2022-12-12T04:15:34.037Z,2.14
2022-12-12T04:16:34.064Z,2.11
2022-12-12T04:17:34.020Z,2.11
2022-12-12T04:18:34.007Z,2.07
2022-12-12T04:19:34.032Z,2.17
2022-12-12T04:20:33.985Z,2.04
2022-12-12T04:21:33.978Z,2.15
2022-12-12T04:22:33.963Z,2.11
2022-12-12T04:23:33.972Z,2.12
2022-12-12T04:24:33.935Z,2.14
2022-12-12T04:25:33.953Z,2.21
2022-12-12T04:26:33.924Z,2.12
2022-12-12T04:27:33.928Z,2.12
2022-12-12T04:28:33.901Z,2.15
2022-12-12T04:29:33.888Z,2.14
2022-12-12T04:30:33.877Z,2.18
2022-12-12T04:31:33.941Z,2.14
2022-12-12T04:32:33.876Z,2.19
2022-12-12T04:33:33.843Z,2.18
2022-12-12T04:34:33.829Z,2.18
2022-12-12T04:35:33.845Z,2.15
2022-12-12T04:36:33.809Z,2.15
2022-12-12T04:37:33.814Z,2.17
2022-12-12T04:38:33.792Z,2.17
2022-12-12T04:39:33.804Z,2.11
2022-12-12T04:40:33.783Z,2.15
2022-12-12T04:41:33.759Z,2.12
2022-12-12T04:42:33.770Z,2.18
2022-12-12T04:43:33.742Z,2.18
2022-12-12T04:44:33.727Z,2.18
2022-12-12T04:45:33.739Z,2.15
2022-12-12T04:46:33.701Z,2.18
2022-12-12T04:47:33.717Z,2.15
2022-12-12T04:48:38.059Z,2.18
2022-12-12T04:49:33.681Z,2.19
2022-12-12T04:50:33.659Z,2.18
2022-12-12T04:51:33.653Z,2.14
2022-12-12T04:52:33.656Z,2.15
2022-12-12T04:53:33.643Z,2.14
2022-12-12T04:54:33.621Z,2.18
2022-12-12T04:55:33.636Z,2.21
2022-12-12T04:56:33.594Z,2.14
2022-12-12T04:57:33.609Z,2.25
2022-12-12T04:58:33.577Z,2.17
2022-12-12T04:59:33.575Z,2.22
2022-12-12T05:00:33.571Z,2.24
2022-12-12T05:01:33.655Z,2.21
2022-12-12T05:02:33.687Z,2.24
2022-12-12T05:03:33.525Z,2.22
2022-12-12T05:04:33.512Z,2.21
2022-12-12T05:05:33.505Z,2.18
2022-12-12T05:06:33.492Z,2.22
2022-12-12T05:07:39.290Z,2.19
2022-12-12T05:08:34.468Z,2.25
2022-12-12T05:09:33.461Z,2.19
2022-12-12T05:10:33.463Z,2.22
2022-12-12T05:11:33.462Z,2.22
2022-12-12T05:12:33.449Z,2.28
2022-12-12T05:13:33.417Z,2.24
2022-12-12T05:14:33.402Z,2.22
2022-12-12T05:15:33.422Z,2.19
2022-12-12T05:16:33.442Z,2.24
2022-12-12T05:17:33.395Z,2.24
2022-12-12T05:18:33.359Z,2.24
2022-12-12T05:19:33.355Z,2.19
2022-12-12T05:20:33.360Z,2.15
2022-12-12T05:21:33.334Z,2.28
2022-12-12T05:22:33.321Z,2.29
2022-12-12T05:23:35.008Z,2.29
2022-12-12T05:24:33.297Z,2.29
2022-12-12T05:25:33.302Z,2.21
2022-12-12T05:26:33.272Z,2.28
2022-12-12T05:27:33.294Z,2.24
2022-12-12T05:28:33.277Z,2.24
2022-12-12T05:29:33.249Z,2.22
2022-12-12T05:30:33.267Z,2.21
2022-12-12T05:31:33.227Z,2.28
2022-12-12T05:32:33.210Z,2.28
2022-12-12T05:33:33.219Z,2.24
2022-12-12T05:34:33.192Z,2.29
2022-12-12T05:35:33.185Z,2.28
2022-12-12T05:36:33.172Z,2.32
2022-12-12T05:37:33.162Z,2.24
2022-12-12T05:38:33.165Z,2.25
2022-12-12T05:39:33.165Z,2.35
2022-12-12T05:40:33.126Z,2.30
2022-12-12T05:41:33.130Z,2.30
2022-12-12T05:42:33.101Z,2.28
2022-12-12T05:43:33.145Z,2.29
2022-12-12T05:44:33.083Z,2.28
2022-12-12T05:45:33.071Z,2.29
2022-12-12T05:46:33.111Z,2.32
2022-12-12T05:47:33.071Z,2.35
2022-12-12T05:48:33.046Z,2.28
2022-12-12T05:49:33.033Z,2.33
2022-12-12T05:50:33.025Z,2.29
2022-12-12T05:51:33.041Z,2.25
2022-12-12T05:52:33.021Z,2.29
2022-12-12T05:53:39.160Z,2.36
2022-12-12T05:54:33.973Z,2.33
2022-12-12T05:55:32.965Z,2.25
2022-12-12T05:56:32.971Z,2.29
2022-12-12T05:57:32.959Z,2.24
2022-12-12T05:58:32.932Z,2.32
2022-12-12T05:59:32.965Z,2.29
2022-12-12T06:00:32.910Z,2.24
2022-12-12T06:01:32.903Z,2.28
2022-12-12T06:02:33.020Z,2.35
2022-12-12T06:03:32.885Z,2.28
2022-12-12T06:04:32.918Z,2.30
2022-12-12T06:05:32.859Z,2.28
2022-12-12T06:06:32.851Z,2.33
2022-12-12T06:07:32.873Z,2.33
2022-12-12T06:08:32.882Z,2.30
2022-12-12T06:09:32.830Z,2.25
2022-12-12T06:10:32.804Z,2.28
2022-12-12T06:11:32.800Z,2.25
2022-12-12T06:12:32.782Z,2.33
2022-12-12T06:13:32.796Z,2.33
2022-12-12T06:14:32.764Z,2.32
2022-12-12T06:15:32.869Z,2.32
2022-12-12T06:16:32.749Z,2.35
2022-12-12T06:17:33.572Z,2.29
2022-12-12T06:18:32.740Z,2.25
2022-12-12T06:19:32.707Z,2.30
2022-12-12T06:20:32.727Z,2.28
2022-12-12T06:21:32.693Z,2.30
2022-12-12T06:22:32.679Z,2.28
2022-12-12T06:23:32.686Z,2.29
2022-12-12T06:24:32.659Z,2.28
2022-12-12T06:25:32.673Z,2.36
2022-12-12T06:26:32.631Z,2.32
2022-12-12T06:27:32.631Z,2.30
2022-12-12T06:28:32.612Z,2.28
2022-12-12T06:29:32.628Z,2.29
2022-12-12T06:30:32.595Z,2.28
2022-12-12T06:31:32.661Z,2.30
2022-12-12T06:32:32.569Z,2.30
2022-12-12T06:33:32.560Z,2.29
2022-12-12T06:34:32.570Z,2.37
2022-12-12T06:35:32.547Z,2.29
2022-12-12T06:36:32.549Z,2.36
2022-12-12T06:37:32.517Z,2.29
2022-12-12T06:38:32.505Z,2.33
2022-12-12T06:39:32.501Z,2.33
2022-12-12T06:40:32.482Z,2.32
2022-12-12T06:41:32.503Z,2.30
2022-12-12T06:42:32.464Z,2.37
2022-12-12T06:43:32.452Z,2.32
2022-12-12T06:44:32.444Z,2.28
2022-12-12T06:45:32.430Z,2.29
2022-12-12T06:46:32.609Z,2.35
2022-12-12T06:47:32.453Z,2.32
2022-12-12T06:48:32.396Z,2.32
2022-12-12T06:49:32.393Z,2.33
2022-12-12T06:50:32.376Z,2.32
2022-12-12T06:51:32.390Z,2.33
2022-12-12T06:52:32.357Z,2.29
2022-12-12T06:53:32.351Z,2.40
2022-12-12T06:54:32.330Z,2.32
2022-12-12T06:55:32.325Z,2.28
2022-12-12T06:56:32.342Z,2.32
2022-12-12T06:57:32.308Z,2.28
2022-12-12T06:58:32.292Z,2.35
2022-12-12T06:59:32.284Z,2.37
2022-12-12T07:00:32.289Z,2.37
2022-12-12T07:01:32.357Z,2.29
2022-12-12T07:02:32.319Z,2.35
2022-12-12T07:03:32.262Z,2.28
2022-12-12T07:04:32.229Z,2.40
2022-12-12T07:05:32.221Z,2.24
2022-12-12T07:06:32.224Z,2.37
2022-12-12T07:07:32.216Z,2.32
2022-12-12T07:08:32.180Z,2.37
2022-12-12T07:09:32.177Z,2.30
2022-12-12T07:10:32.170Z,2.29
2022-12-12T07:11:32.179Z,2.37
2022-12-12T07:12:32.138Z,2.37
2022-12-12T07:13:32.136Z,2.35
2022-12-12T07:14:32.118Z,2.35
2022-12-12T07:15:32.186Z,2.29
2022-12-12T07:16:32.119Z,2.32
2022-12-12T07:17:32.101Z,2.29
2022-12-12T07:18:32.081Z,2.32
2022-12-12T07:19:32.096Z,2.37
2022-12-12T07:20:32.082Z,2.37
2022-12-12T07:21:32.045Z,2.32
2022-12-12T07:22:32.039Z,2.32
2022-12-12T07:23:32.026Z,2.28
2022-12-12T07:24:32.014Z,2.33
2022-12-12T07:25:32.028Z,2.36
2022-12-12T07:26:31.992Z,2.37
2022-12-12T07:27:31.986Z,2.30
2022-12-12T07:28:31.979Z,2.35
2022-12-12T07:29:31.967Z,2.30
2022-12-12T07:30:31.977Z,2.35
2022-12-12T07:31:32.010Z,2.36
2022-12-12T07:32:31.928Z,2.36
2022-12-12T07:33:42.699Z,2.32
2022-12-12T07:34:32.926Z,2.40
2022-12-12T07:35:31.929Z,2.33
2022-12-12T07:36:31.911Z,2.32
2022-12-12T07:37:31.878Z,2.28
2022-12-12T07:38:31.891Z,2.30
2022-12-12T07:39:31.876Z,2.33
2022-12-12T07:40:31.853Z,2.30
2022-12-12T07:41:31.827Z,2.39
2022-12-12T07:42:31.824Z,2.37
2022-12-12T07:43:32.921Z,2.36
2022-12-12T07:44:31.824Z,2.33
2022-12-12T07:45:31.788Z,2.37
2022-12-12T07:46:31.843Z,2.33
2022-12-12T07:47:31.770Z,2.35
2022-12-12T07:48:31.769Z,2.36
2022-12-12T07:49:31.770Z,2.32
2022-12-12T07:50:31.749Z,2.36
2022-12-12T07:51:31.751Z,2.35
2022-12-12T07:52:31.725Z,2.45
2022-12-12T07:53:31.705Z,2.39
2022-12-12T07:54:31.720Z,2.39
2022-12-12T07:55:31.718Z,2.43
2022-12-12T07:56:31.673Z,2.33
2022-12-12T07:57:31.667Z,2.42
2022-12-12T07:58:31.659Z,2.30
2022-12-12T07:59:31.660Z,2.43
2022-12-12T08:00:31.630Z,2.30
2022-12-12T08:01:31.729Z,2.35
2022-12-12T08:02:31.640Z,2.40
2022-12-12T08:03:31.598Z,2.33
2022-12-12T08:04:31.625Z,2.42
2022-12-12T08:05:31.579Z,2.45
2022-12-12T08:06:31.573Z,2.39
2022-12-12T08:07:31.598Z,2.39
2022-12-12T08:08:31.621Z,2.47
2022-12-12T08:09:31.553Z,2.48
2022-12-12T08:10:31.523Z,2.43
2022-12-12T08:11:31.514Z,2.35
2022-12-12T08:12:31.524Z,2.40
2022-12-12T08:13:31.491Z,2.45
2022-12-12T08:14:31.504Z,2.47
2022-12-12T08:15:31.479Z,2.40
2022-12-12T08:16:31.529Z,2.39
2022-12-12T08:17:31.447Z,2.39
2022-12-12T08:18:31.439Z,2.42
2022-12-12T08:19:31.449Z,2.47
2022-12-12T08:20:31.418Z,2.42
2022-12-12T08:21:31.403Z,2.37
2022-12-12T08:22:31.395Z,2.42
2022-12-12T08:23:31.409Z,2.42
2022-12-12T08:24:31.398Z,2.50
2022-12-12T08:25:31.368Z,2.43
2022-12-12T08:26:31.355Z,2.45
2022-12-12T08:27:31.340Z,2.40
2022-12-12T08:28:31.332Z,2.43
2022-12-12T08:29:31.342Z,2.47
2022-12-12T08:30:31.314Z,2.40
2022-12-12T08:31:31.360Z,2.45
2022-12-12T08:32:31.290Z,2.39
2022-12-12T08:33:31.276Z,2.48
2022-12-12T08:34:31.291Z,2.51
2022-12-12T08:35:31.256Z,2.48
2022-12-12T08:36:31.245Z,2.39
2022-12-12T08:37:31.229Z,2.48
2022-12-12T08:38:31.225Z,2.50
2022-12-12T08:39:31.257Z,2.50
2022-12-12T08:40:31.207Z,2.47
2022-12-12T08:41:31.191Z,2.42
2022-12-12T08:42:31.185Z,2.50
2022-12-12T08:43:31.169Z,2.48
2022-12-12T08:44:31.190Z,2.43
2022-12-12T08:45:31.152Z,2.42
2022-12-12T08:46:31.259Z,2.48
2022-12-12T08:47:31.125Z,2.47
2022-12-12T08:48:31.120Z,2.42
2022-12-12T08:49:31.105Z,2.51
2022-12-12T08:50:31.095Z,2.50
2022-12-12T08:51:31.110Z,2.50
2022-12-12T08:52:31.078Z,2.51
2022-12-12T08:53:31.063Z,2.51
2022-12-12T08:54:31.078Z,2.43
2022-12-12T08:55:31.063Z,2.36
2022-12-12T08:56:31.050Z,2.47
2022-12-12T08:57:31.018Z,2.48
2022-12-12T08:58:31.014Z,2.48
2022-12-12T08:59:31.026Z,2.48
2022-12-12T09:00:30.995Z,2.37
2022-12-12T09:01:31.038Z,2.50
2022-12-12T09:02:31.099Z,2.48
2022-12-12T09:03:30.949Z,2.50
2022-12-12T09:04:30.981Z,2.54
2022-12-12T09:05:30.936Z,2.36
2022-12-12T09:06:30.927Z,2.42
2022-12-12T09:07:30.911Z,2.50
2022-12-12T09:08:31.047Z,2.47
2022-12-12T09:09:30.914Z,2.54
2022-12-12T09:10:30.885Z,2.55
2022-12-12T09:11:30.892Z,2.43
2022-12-12T09:12:30.867Z,2.53
2022-12-12T09:13:30.850Z,2.54
2022-12-12T09:14:30.857Z,2.58
2022-12-12T09:15:30.841Z,2.60
2022-12-12T09:16:30.951Z,2.57
2022-12-12T09:17:30.804Z,2.61
2022-12-12T09:18:30.794Z,2.53
2022-12-12T09:19:30.808Z,2.51
2022-12-12T09:20:30.773Z,2.50
2022-12-12T09:21:30.761Z,2.55
2022-12-12T09:22:30.753Z,2.58
2022-12-12T09:23:30.738Z,2.54
2022-12-12T09:24:30.757Z,2.58
2022-12-12T09:25:30.751Z,2.50
2022-12-12T09:26:30.738Z,2.60
2022-12-12T09:27:30.725Z,2.53
2022-12-12T09:28:30.689Z,2.54
2022-12-12T09:29:30.679Z,2.54
2022-12-12T09:30:30.692Z,2.63
2022-12-12T09:31:30.722Z,2.58
2022-12-12T09:32:30.650Z,2.58
2022-12-12T09:33:30.634Z,2.58
2022-12-12T09:34:30.627Z,2.63
2022-12-12T09:35:30.631Z,2.71
2022-12-12T09:36:30.625Z,2.66
2022-12-12T09:37:30.591Z,2.57
2022-12-12T09:38:30.605Z,2.61
2022-12-12T09:39:30.566Z,2.58
2022-12-12T09:40:30.562Z,2.57
2022-12-12T09:41:30.559Z,2.58
2022-12-12T09:42:30.538Z,2.66
2022-12-12T09:43:30.571Z,2.66
2022-12-12T09:44:30.522Z,2.57
2022-12-12T09:45:30.554Z,2.68
2022-12-12T09:46:30.499Z,2.66
2022-12-12T09:47:30.485Z,2.65
2022-12-12T09:48:30.479Z,2.71
2022-12-12T09:49:30.488Z,2.72
2022-12-12T09:50:30.458Z,2.71
2022-12-12T09:51:30.445Z,2.76
2022-12-12T09:52:31.311Z,2.71
2022-12-12T09:53:30.423Z,2.71
2022-12-12T09:54:30.440Z,2.72
2022-12-12T09:55:30.396Z,2.69
2022-12-12T09:56:30.392Z,2.66
2022-12-12T09:57:30.381Z,2.73
2022-12-12T09:58:30.374Z,2.71
2022-12-12T09:59:30.404Z,2.75
2022-12-12T10:00:30.388Z,2.78
2022-12-12T10:01:30.352Z,2.72
2022-12-12T10:02:30.380Z,2.82
2022-12-12T10:03:30.318Z,2.81
2022-12-12T10:04:30.306Z,2.79
2022-12-12T10:05:30.291Z,2.78
2022-12-12T10:06:38.260Z,2.89
2022-12-12T10:07:31.288Z,2.87
2022-12-12T10:08:30.313Z,2.86
2022-12-12T10:09:30.246Z,2.86
2022-12-12T10:10:30.238Z,2.84
2022-12-12T10:11:30.227Z,2.81
2022-12-12T10:12:30.243Z,2.84
2022-12-12T10:13:30.207Z,2.82
2022-12-12T10:14:30.196Z,2.82
2022-12-12T10:15:30.216Z,2.82
2022-12-12T10:16:30.210Z,2.89
2022-12-12T10:17:30.185Z,2.82
2022-12-12T10:18:30.155Z,2.82
2022-12-12T10:19:30.142Z,2.81
2022-12-12T10:20:30.128Z,2.81
2022-12-12T10:21:30.122Z,2.84
2022-12-12T10:22:30.152Z,2.81
2022-12-12T10:23:30.122Z,2.79
2022-12-12T10:24:30.091Z,2.87
2022-12-12T10:25:30.074Z,2.86
2022-12-12T10:26:30.066Z,2.84
2022-12-12T10:27:30.081Z,2.90
2022-12-12T10:28:30.045Z,2.91
2022-12-12T10:29:30.057Z,2.76
2022-12-12T10:30:30.047Z,2.87
2022-12-12T10:31:30.160Z,2.82
2022-12-12T10:32:30.003Z,2.82
2022-12-12T10:33:29.988Z,2.79
2022-12-12T10:34:30.008Z,2.81
2022-12-12T10:35:30.469Z,2.76
2022-12-12T10:36:29.965Z,2.79
2022-12-12T10:37:29.949Z,2.87
2022-12-12T10:38:29.943Z,2.87
2022-12-12T10:39:29.951Z,2.84
2022-12-12T10:40:29.919Z,2.79
2022-12-12T10:41:29.906Z,2.81
2022-12-12T10:42:29.917Z,2.81
2022-12-12T10:43:29.901Z,2.79
2022-12-12T10:44:29.879Z,2.81
2022-12-12T10:45:29.966Z,2.82
2022-12-12T10:46:30.089Z,2.81
2022-12-12T10:47:29.864Z,2.84
2022-12-12T10:48:29.869Z,2.78
2022-12-12T10:49:29.820Z,2.76
2022-12-12T10:50:29.812Z,2.78
2022-12-12T10:51:29.800Z,2.87
2022-12-12T10:52:29.788Z,2.79
2022-12-12T10:53:29.789Z,2.82
2022-12-12T10:54:29.805Z,2.71
2022-12-12T10:55:29.756Z,2.76
2022-12-12T10:56:29.749Z,2.76
2022-12-12T10:57:29.734Z,2.69
2022-12-12T10:58:29.724Z,2.65
2022-12-12T10:59:29.740Z,2.66
2022-12-12T11:00:29.705Z,2.72
2022-12-12T11:02:00.432Z,2.73
2022-12-12T11:02:30.887Z,2.78
2022-12-12T11:03:29.807Z,2.71
2022-12-12T11:04:29.658Z,2.86
2022-12-12T11:05:29.648Z,2.78
2022-12-12T11:06:29.673Z,2.72
2022-12-12T11:07:29.626Z,2.71
2022-12-12T11:08:29.711Z,2.69
2022-12-12T11:09:29.611Z,2.71
2022-12-12T11:10:34.002Z,2.68
2022-12-12T11:11:30.582Z,2.71
2022-12-12T11:12:29.575Z,2.78
2022-12-12T11:13:29.562Z,2.63
2022-12-12T11:14:29.554Z,2.73
2022-12-12T11:15:29.569Z,2.72
2022-12-12T11:16:29.590Z,2.68
2022-12-12T11:17:29.518Z,2.71
2022-12-12T11:18:29.513Z,2.66
2022-12-12T11:19:29.523Z,2.76
2022-12-12T11:20:29.490Z,2.68
2022-12-12T11:21:29.493Z,2.75
2022-12-12T11:22:29.493Z,2.71
2022-12-12T11:23:29.455Z,2.73
2022-12-12T11:24:29.450Z,2.66
2022-12-12T11:25:29.429Z,2.65
2022-12-12T11:26:29.430Z,2.65
2022-12-12T11:27:29.433Z,2.76
2022-12-12T11:28:29.408Z,2.71
2022-12-12T11:29:29.386Z,2.75
2022-12-12T11:30:29.382Z,2.78
2022-12-12T11:31:29.416Z,2.69
2022-12-12T11:32:29.387Z,2.76
2022-12-12T11:33:29.371Z,2.78
2022-12-12T11:34:29.339Z,2.79
2022-12-12T11:35:29.354Z,2.75
2022-12-12T11:36:29.315Z,2.86
2022-12-12T11:37:29.301Z,2.84
2022-12-12T11:38:29.319Z,2.79
2022-12-12T11:39:29.309Z,2.87
2022-12-12T11:40:29.273Z,2.90
2022-12-12T11:41:29.259Z,2.78
2022-12-12T11:42:29.250Z,2.82
2022-12-12T11:43:29.243Z,2.90
2022-12-12T11:44:29.254Z,2.94
2022-12-12T11:45:29.272Z,2.84
2022-12-12T11:46:29.212Z,2.87
2022-12-12T11:47:29.244Z,2.94
2022-12-12T11:48:29.191Z,2.82
2022-12-12T11:49:29.203Z,2.84
2022-12-12T11:50:29.164Z,2.79
2022-12-12T11:51:29.174Z,2.82
2022-12-12T11:52:29.165Z,2.82
2022-12-12T11:53:29.179Z,2.82
2022-12-12T11:54:29.160Z,2.99
2022-12-12T11:55:29.120Z,2.93
2022-12-12T11:56:29.106Z,2.82
2022-12-12T11:57:29.093Z,2.87
2022-12-12T11:58:29.081Z,2.97
2022-12-12T11:59:29.093Z,2.94
2022-12-12T12:00:29.055Z,2.96
2022-12-12T12:01:29.051Z,2.79
2022-12-12T12:02:29.041Z,2.91
2022-12-12T12:03:29.118Z,2.94
2022-12-12T12:04:29.121Z,2.93
2022-12-12T12:05:29.003Z,2.93
2022-12-12T12:06:28.990Z,2.93
2022-12-12T12:07:29.010Z,2.91
2022-12-12T12:08:29.046Z,2.91
2022-12-12T12:09:28.961Z,2.93
2022-12-12T12:10:28.977Z,2.90
2022-12-12T12:11:28.944Z,2.93
2022-12-12T12:12:28.930Z,2.94
2022-12-12T12:13:28.927Z,2.96
2022-12-12T12:14:28.906Z,2.82
2022-12-12T12:15:28.928Z,2.93
2022-12-12T12:16:28.949Z,2.93
2022-12-12T12:17:28.879Z,2.82
2022-12-12T12:18:28.863Z,2.96
2022-12-12T12:19:28.860Z,2.90
2022-12-12T12:20:28.865Z,2.82
2022-12-12T12:21:28.837Z,2.91
2022-12-12T12:22:28.835Z,2.93
2022-12-12T12:23:28.852Z,2.87
2022-12-12T12:24:28.801Z,2.97
2022-12-12T12:25:28.800Z,2.91
2022-12-12T12:26:28.784Z,2.82
2022-12-12T12:27:28.795Z,2.97
2022-12-12T12:28:28.780Z,2.93
2022-12-12T12:29:28.753Z,2.93
2022-12-12T12:30:28.814Z,2.91
2022-12-12T12:31:28.731Z,2.94
2022-12-12T12:32:28.739Z,2.91
2022-12-12T12:33:28.707Z,2.97
2022-12-12T12:34:28.692Z,2.91
2022-12-12T12:35:28.706Z,2.91
2022-12-12T12:36:28.671Z,2.90
2022-12-12T12:37:28.668Z,2.89
2022-12-12T12:38:28.658Z,2.93
2022-12-12T12:39:28.668Z,2.91
2022-12-12T12:40:28.656Z,2.93
2022-12-12T12:41:28.620Z,2.96
2022-12-12T12:42:28.632Z,2.93
2022-12-12T12:43:28.601Z,2.94
2022-12-12T12:44:28.588Z,2.94
2022-12-12T12:45:28.575Z,2.97
2022-12-12T12:46:28.588Z,2.94
2022-12-12T12:47:28.582Z,2.91
2022-12-12T12:48:28.546Z,2.91
2022-12-12T12:49:28.565Z,2.96
2022-12-12T12:50:28.527Z,2.90
2022-12-12T12:51:28.511Z,2.93
2022-12-12T12:52:28.495Z,2.96
2022-12-12T12:53:28.492Z,2.96
2022-12-12T12:54:28.499Z,2.93
2022-12-12T12:55:28.492Z,2.96
2022-12-12T12:56:28.457Z,2.97
2022-12-12T12:57:28.448Z,2.94
2022-12-12T12:58:28.455Z,2.86
2022-12-12T12:59:28.428Z,2.91
2022-12-12T13:00:28.419Z,2.94
2022-12-12T13:01:28.454Z,2.97
2022-12-12T13:02:28.437Z,2.90
2022-12-12T13:03:28.411Z,2.91
2022-12-12T13:04:28.374Z,2.86
2022-12-12T13:05:28.370Z,2.94
2022-12-12T13:06:28.351Z,2.87
2022-12-12T13:07:28.349Z,2.91
2022-12-12T13:08:28.385Z,2.90
2022-12-12T13:09:28.350Z,2.89
2022-12-12T13:10:28.304Z,2.81
2022-12-12T13:11:28.326Z,2.79
2022-12-12T13:12:28.285Z,2.90
2022-12-12T13:13:28.296Z,2.93
2022-12-12T13:14:30.297Z,2.82
2022-12-12T13:15:28.340Z,2.81
2022-12-12T13:16:28.243Z,2.76
2022-12-12T13:17:28.237Z,2.79
2022-12-12T13:18:33.547Z,2.87